New Gretna, New Jersey
Current Conditions -  °F | °C
As of 2:54 AM on Monday 24 Nov 2014 (Local Time) from KACY Reporting Station
Moderate Rain Moderate Rain  
Wind Chill: 60°   Ceiling: 700
Heat Index: 60°   Visibility: 4mi
Dew Point: 59°   Wind: 20mph
Humidity: 96%   Direction: 160°SSE
Pressure: 29.8"   Gusts: 33mph
Location:  39.59°N, 74.45°W
Report Text: KACY 240754Z 16017G29KT 4SM RA BR BKN007 OVC014 16/15 A2980 RMK AO2 PK WND 17029/0747 CIG 005V011 SLP091 P0014 T01560150
Loading
Personal Weather Stations






























Interactive Weather Map New forecast layout! Learn more

10-Day Weather Forecast

Advertisements
Track Severe Weather on mobile